createdAt,value
2019-06-01T02:11:41.562Z,99.90
2019-06-01T02:14:29.857Z,99.90
2019-06-01T02:17:37.308Z,99.90
2019-06-01T02:20:25.384Z,99.90
2019-06-01T02:28:50.423Z,99.90
2019-06-01T02:31:42.128Z,99.90
2019-06-01T02:34:28.459Z,99.90
2019-06-01T02:37:16.559Z,99.90
2019-06-01T02:40:23.988Z,99.90
2019-06-01T02:43:12.267Z,99.90
2019-06-01T02:46:02.104Z,99.90
2019-06-01T02:48:50.441Z,99.90
2019-06-01T02:51:38.468Z,99.90
2019-06-01T02:54:17.674Z,99.90
2019-06-01T02:57:06.203Z,99.90
2019-06-01T02:59:56.299Z,99.90
2019-06-01T03:09:14.426Z,99.90
2019-06-01T03:31:28.380Z,99.90
2019-06-01T03:37:31.437Z,99.90
2019-06-01T03:40:23.960Z,99.90
2019-06-01T03:43:09.494Z,99.90
2019-06-01T03:45:57.729Z,99.90
2019-06-01T03:48:46.000Z,99.90
2019-06-01T03:51:34.299Z,99.90
2019-06-01T03:54:13.306Z,99.90
2019-06-01T03:57:01.369Z,99.90
2019-06-01T04:00:09.380Z,99.90
2019-06-01T04:02:58.397Z,99.90
2019-06-01T04:05:46.472Z,99.90
2019-06-01T04:08:34.583Z,99.90
2019-06-01T04:11:22.692Z,99.90
2019-06-01T04:17:04.785Z,99.90
2019-06-01T04:19:54.346Z,99.90
2019-06-01T04:22:42.380Z,99.90
2019-06-01T04:25:32.438Z,99.90
2019-06-01T04:28:20.648Z,99.90
2019-06-01T04:31:08.764Z,99.90
2019-06-01T04:33:56.868Z,99.90
2019-06-01T04:36:45.735Z,99.90
2019-06-01T04:39:33.816Z,99.90
2019-06-01T04:42:21.880Z,99.90
2019-06-01T04:45:10.898Z,99.90
2019-06-01T04:48:00.031Z,99.90
2019-06-01T04:50:48.153Z,99.90
2019-06-01T04:53:36.226Z,99.90
2019-06-01T04:56:05.266Z,99.90
2019-06-01T05:01:41.028Z,99.90
2019-06-01T05:04:11.070Z,99.90
2019-06-01T05:06:59.676Z,99.90
2019-06-01T05:09:47.867Z,99.90
2019-06-01T05:12:35.899Z,99.90
2019-06-01T05:18:19.687Z,99.90
2019-06-01T05:21:08.469Z,99.90
2019-06-01T05:23:57.969Z,99.90
2019-06-01T05:26:46.158Z,99.90
2019-06-01T05:29:34.185Z,99.90
2019-06-01T05:32:22.288Z,99.90
2019-06-01T05:41:19.926Z,99.90
2019-06-01T05:44:09.301Z,99.90
2019-06-01T05:46:57.441Z,99.90
2019-06-01T05:49:45.580Z,99.90
2019-06-01T05:52:52.764Z,99.90
2019-06-01T05:55:33.216Z,99.90
2019-06-01T05:58:14.987Z,99.90
2019-06-01T06:00:54.229Z,99.90
2019-06-01T06:03:42.269Z,99.90
2019-06-01T06:06:30.404Z,99.90
2019-06-01T06:09:19.140Z,99.90
2019-06-01T06:12:08.543Z,99.90
2019-06-01T06:14:56.746Z,99.90
2019-06-01T06:17:44.955Z,99.90
2019-06-01T06:20:33.182Z,99.90
2019-06-01T06:23:22.631Z,99.90
2019-06-01T06:26:11.195Z,99.90
2019-06-01T06:28:59.344Z,99.90
2019-06-01T06:31:47.574Z,99.90
2019-06-01T06:34:35.823Z,99.90
2019-06-01T06:37:24.071Z,99.90
2019-06-01T06:43:32.928Z,99.90
2019-06-01T06:46:16.607Z,99.90
2019-06-01T06:49:04.865Z,99.90
2019-06-01T06:51:52.999Z,99.90
2019-06-01T06:54:31.989Z,99.90
2019-06-01T06:57:20.220Z,99.90
2019-06-01T07:06:29.438Z,99.90
2019-06-01T07:09:36.652Z,99.90
2019-06-01T07:12:25.382Z,99.90
2019-06-01T07:15:14.699Z,99.90
2019-06-01T07:18:02.836Z,99.90
2019-06-01T07:20:51.080Z,99.90
2019-06-01T07:23:39.248Z,99.90
2019-06-01T07:26:28.157Z,99.90
2019-06-01T07:29:20.019Z,99.90
2019-06-01T07:32:09.082Z,99.90
2019-06-01T07:35:00.734Z,99.90
2019-06-01T07:37:46.987Z,99.90
2019-06-01T07:40:35.065Z,99.90
2019-06-01T07:43:23.212Z,99.90
2019-06-01T07:46:11.520Z,99.90
2019-06-01T07:48:59.746Z,99.90
2019-06-01T07:51:48.263Z,99.90
2019-06-01T07:54:42.233Z,99.90
2019-06-01T07:57:30.334Z,99.90
2019-06-01T08:00:22.207Z,99.90
2019-06-01T08:03:10.168Z,99.90
2019-06-01T08:05:58.298Z,99.90
2019-06-01T08:08:46.594Z,99.90
2019-06-01T08:11:56.368Z,99.90
2019-06-01T08:14:44.711Z,99.90
2019-06-01T08:20:39.783Z,99.90
2019-06-01T08:26:22.613Z,99.90
2019-06-01T08:29:11.004Z,99.90
2019-06-01T08:35:26.989Z,99.90
2019-06-01T08:41:29.934Z,99.90
2019-06-01T08:47:07.028Z,99.90
2019-06-01T08:49:55.181Z,99.90
2019-06-01T08:52:35.490Z,99.90
2019-06-01T08:55:14.212Z,99.90
2019-06-01T08:58:02.272Z,99.90
2019-06-01T09:01:09.488Z,99.90
2019-06-01T09:03:57.801Z,99.90
2019-06-01T09:06:45.921Z,99.90
2019-06-01T09:09:53.169Z,99.90
2019-06-01T09:12:41.360Z,99.90
2019-06-01T09:18:23.642Z,99.90
2019-06-01T09:21:12.036Z,99.90
2019-06-01T09:24:00.206Z,99.90
2019-06-01T09:26:48.275Z,99.90
2019-06-01T09:29:55.512Z,99.90
2019-06-01T09:32:43.532Z,99.90
2019-06-01T09:35:50.124Z,99.90
2019-06-01T09:38:21.368Z,99.90
2019-06-01T09:41:09.460Z,99.90
2019-06-01T09:43:57.579Z,99.90
2019-06-01T09:46:45.602Z,99.90
2019-06-01T09:49:34.089Z,99.90
2019-06-01T09:52:04.414Z,99.90
2019-06-01T09:54:52.619Z,99.90
2019-06-01T09:57:40.621Z,99.90
2019-06-01T10:00:28.795Z,99.90
2019-06-01T10:03:16.961Z,99.90
2019-06-01T10:06:05.187Z,99.90
2019-06-01T10:08:53.218Z,99.90
2019-06-01T10:14:48.255Z,99.90
2019-06-01T10:17:37.038Z,99.90
2019-06-01T10:20:26.363Z,99.90
2019-06-01T10:23:14.490Z,99.90
2019-06-01T10:26:21.764Z,99.90
2019-06-01T10:29:09.907Z,99.90
2019-06-01T10:31:58.001Z,99.90
2019-06-01T10:34:46.158Z,99.90
2019-06-01T10:37:35.317Z,99.90
2019-06-01T10:40:24.175Z,99.90
2019-06-01T10:43:12.306Z,99.90
2019-06-01T10:46:00.359Z,99.90
2019-06-01T10:49:07.586Z,99.90
2019-06-01T10:51:55.765Z,99.90
2019-06-01T10:54:36.049Z,99.90
2019-06-01T10:57:24.300Z,99.90
2019-06-01T11:03:27.145Z,99.90
2019-06-01T11:06:15.360Z,99.90
2019-06-01T11:12:31.262Z,99.90
2019-06-01T11:18:35.152Z,99.90
2019-06-01T11:21:23.777Z,99.90
2019-06-01T11:24:23.271Z,99.90
2019-06-01T11:27:03.493Z,99.90
2019-06-01T11:35:47.790Z,99.90
2019-06-01T11:38:54.983Z,99.90
2019-06-01T11:41:43.042Z,99.90
2019-06-01T11:44:31.057Z,99.90
2019-06-01T11:50:56.288Z,99.90
2019-06-01T11:53:37.282Z,99.90
2019-06-01T11:56:17.905Z,99.90
2019-06-01T11:58:57.034Z,99.90
2019-06-01T12:01:46.017Z,99.90
2019-06-01T12:04:35.762Z,98.60
2019-06-01T12:07:25.160Z,97.70
2019-06-01T12:10:16.444Z,98.70
2019-06-01T12:13:04.603Z,97.80
2019-06-01T12:15:52.648Z,97.10
2019-06-01T12:18:40.808Z,97.00
2019-06-01T12:21:28.998Z,97.10
2019-06-01T12:24:17.200Z,97.00
2019-06-01T12:27:06.932Z,96.60
2019-06-01T12:29:54.988Z,96.90
2019-06-01T12:32:44.051Z,95.10
2019-06-01T12:35:32.849Z,94.60
2019-06-01T12:38:20.953Z,94.60
2019-06-01T12:41:09.060Z,94.80
2019-06-01T12:44:16.248Z,93.50
2019-06-01T12:47:23.478Z,93.10
2019-06-01T12:50:11.548Z,93.30
2019-06-01T12:52:59.784Z,93.10
2019-06-01T12:55:38.766Z,93.70
2019-06-01T12:58:26.863Z,93.40
2019-06-01T13:01:14.943Z,93.30
2019-06-01T13:04:03.088Z,92.70
2019-06-01T13:06:53.788Z,92.90
2019-06-01T13:09:41.965Z,93.10
2019-06-01T13:12:31.034Z,92.00
2019-06-01T13:15:41.125Z,91.40
2019-06-01T13:18:29.561Z,92.20
2019-06-01T13:21:17.597Z,91.90
2019-06-01T13:24:05.751Z,91.90
2019-06-01T13:30:23.141Z,91.20
2019-06-01T13:33:11.200Z,90.70
2019-06-01T13:36:02.109Z,90.90
2019-06-01T13:38:31.040Z,90.60
2019-06-01T13:40:59.878Z,90.50
2019-06-01T13:43:28.910Z,89.30
2019-06-01T14:04:07.883Z,87.80
2019-06-01T14:06:51.107Z,86.70
2019-06-01T14:12:51.427Z,85.90
2019-06-01T14:15:39.872Z,87.60
2019-06-01T14:18:08.766Z,86.90
2019-06-01T14:20:56.895Z,87.70
2019-06-01T14:23:48.108Z,87.00
2019-06-01T14:26:17.003Z,88.10
2019-06-01T14:28:46.105Z,84.80
2019-06-01T14:31:15.128Z,85.00
2019-06-01T14:39:03.402Z,85.80
2019-06-01T14:41:51.478Z,85.20
2019-06-01T14:44:20.278Z,86.80
2019-06-01T14:46:56.100Z,87.60
2019-06-01T14:49:45.425Z,88.30
2019-06-01T14:52:35.330Z,89.00
2019-06-01T14:55:15.865Z,87.40
2019-06-01T14:57:56.626Z,86.70
2019-06-01T15:27:11.875Z,86.70
2019-06-01T15:30:00.113Z,85.90
2019-06-01T15:39:32.240Z,85.90
2019-06-01T15:48:22.487Z,85.50
2019-06-01T15:51:29.929Z,86.00
2019-06-01T15:54:18.214Z,85.20
2019-06-01T15:57:06.284Z,85.80
2019-06-01T15:59:54.579Z,85.50
2019-06-01T16:02:45.867Z,84.30
2019-06-01T16:05:33.897Z,84.60
2019-06-01T16:08:16.085Z,83.50
2019-06-01T16:10:55.201Z,83.50
2019-06-01T16:13:43.553Z,84.80
2019-06-01T16:16:50.797Z,82.90
2019-06-01T16:19:39.042Z,81.50
2019-06-01T16:22:27.379Z,81.80
2019-06-01T16:25:15.574Z,80.60
2019-06-01T16:28:22.821Z,80.90
2019-06-01T16:30:51.630Z,81.60
2019-06-01T16:33:39.797Z,82.90
2019-06-01T16:36:28.052Z,82.50
2019-06-01T16:39:08.766Z,83.00
2019-06-01T16:41:49.305Z,83.00
2019-06-01T16:44:28.121Z,82.70
2019-06-01T16:47:16.242Z,83.10
2019-06-01T16:53:18.704Z,82.70
2019-06-01T16:56:06.846Z,82.10
2019-06-01T16:58:56.005Z,82.20
2019-06-01T17:01:44.905Z,81.20
2019-06-01T17:04:33.085Z,82.10
2019-06-01T17:07:21.254Z,82.70
2019-06-01T17:13:14.350Z,83.20
2019-06-01T17:16:05.166Z,83.90
2019-06-01T17:28:00.137Z,84.30
2019-06-01T17:30:50.032Z,84.30
2019-06-01T17:34:00.397Z,85.10
2019-06-01T17:37:11.321Z,84.50
2019-06-01T17:40:00.038Z,85.10
2019-06-01T17:42:49.576Z,85.80
2019-06-01T17:48:58.312Z,85.80
2019-06-01T17:51:46.521Z,86.30
2019-06-01T17:54:34.701Z,86.80
2019-06-01T17:57:23.024Z,87.10
2019-06-01T17:59:51.969Z,87.10
2019-06-01T18:02:40.328Z,86.70
2019-06-01T18:05:28.626Z,87.20
2019-06-01T18:07:57.700Z,89.00
2019-06-01T18:13:27.589Z,88.20
2019-06-01T18:16:15.126Z,88.80
2019-06-01T18:18:58.283Z,89.00
2019-06-01T18:21:27.259Z,89.70
2019-06-01T18:24:15.315Z,90.00
2019-06-01T18:26:56.113Z,90.20
2019-06-01T18:29:48.679Z,90.20
2019-06-01T18:32:34.087Z,90.20
2019-06-01T18:39:11.811Z,90.60
2019-06-01T18:42:01.337Z,90.90
2019-06-01T18:44:49.497Z,90.90
2019-06-01T18:47:37.653Z,91.20
2019-06-01T18:50:25.761Z,91.20
2019-06-01T18:52:54.625Z,91.30
2019-06-01T18:55:27.328Z,91.50
2019-06-01T18:58:14.834Z,91.70
2019-06-01T19:01:29.470Z,92.00
2019-06-01T19:10:54.095Z,92.80
2019-06-01T19:13:23.057Z,93.30
2019-06-01T19:16:12.217Z,93.40
2019-06-01T19:18:44.685Z,93.80
2019-06-01T19:21:14.753Z,94.00
2019-06-01T19:30:52.037Z,94.90
2019-06-01T19:33:20.837Z,95.40
2019-06-01T19:36:28.356Z,95.60
2019-06-01T19:39:18.920Z,95.70
2019-06-01T19:41:47.803Z,96.30
2019-06-01T19:44:17.758Z,96.40
2019-06-01T19:46:46.752Z,96.40
2019-06-01T19:49:16.805Z,97.10
2019-06-01T19:51:45.856Z,97.30
2019-06-01T19:54:15.040Z,97.50
2019-06-01T19:57:04.870Z,97.70
2019-06-01T19:59:33.758Z,98.10
2019-06-01T20:02:02.904Z,98.40
2019-06-01T20:04:31.976Z,98.90
2019-06-01T20:07:03.145Z,99.20
2019-06-01T20:09:34.797Z,99.40
2019-06-01T20:12:11.592Z,99.80
2019-06-01T20:14:54.633Z,99.90
2019-06-01T20:17:26.373Z,99.90
2019-06-01T20:19:59.959Z,99.90
2019-06-01T20:22:38.787Z,99.90
2019-06-01T20:25:08.553Z,99.90
2019-06-01T20:27:37.915Z,99.90
2019-06-01T20:30:11.610Z,99.90
2019-06-01T20:32:40.763Z,99.90
2019-06-01T20:35:09.978Z,99.90
2019-06-01T20:37:38.896Z,99.90
2019-06-01T20:40:08.621Z,99.90
2019-06-01T20:42:37.675Z,99.90
2019-06-01T20:45:08.744Z,99.90
2019-06-01T20:47:38.685Z,99.90
2019-06-01T20:56:19.396Z,99.90
2019-06-01T20:58:48.741Z,99.90
2019-06-01T21:01:27.653Z,99.90
2019-06-01T21:03:56.591Z,99.90
2019-06-01T21:07:44.851Z,99.90
2019-06-01T21:14:34.875Z,99.90
2019-06-01T21:20:30.016Z,99.90
2019-06-01T21:22:58.599Z,99.90
2019-06-01T21:33:01.855Z,99.90
2019-06-01T21:35:39.928Z,99.90
2019-06-01T21:38:08.867Z,99.90
2019-06-01T21:55:33.603Z,99.90
2019-06-01T21:58:02.506Z,99.90
2019-06-01T22:00:35.558Z,99.90
2019-06-01T22:03:25.492Z,99.90
2019-06-01T22:05:54.545Z,99.90
2019-06-01T22:08:23.526Z,99.90
2019-06-01T22:10:52.424Z,99.90
2019-06-01T22:13:25.512Z,99.90
2019-06-01T22:15:54.602Z,99.90
2019-06-01T22:18:25.896Z,99.90
2019-06-01T22:20:55.828Z,99.90
2019-06-01T22:30:30.159Z,99.90
2019-06-01T22:32:59.197Z,99.90
2019-06-01T22:43:46.788Z,99.90
2019-06-01T22:46:14.910Z,99.90
2019-06-01T22:49:09.123Z,99.90
2019-06-01T22:52:00.041Z,99.90
2019-06-01T22:54:29.388Z,99.90
2019-06-01T22:57:20.235Z,99.90
2019-06-01T22:59:49.657Z,99.90
2019-06-01T23:02:18.637Z,99.90
2019-06-01T23:04:49.041Z,99.90
2019-06-01T23:10:09.608Z,99.90
2019-06-01T23:12:38.444Z,99.90
2019-06-01T23:15:07.641Z,99.90
2019-06-01T23:17:36.561Z,99.90
2019-06-01T23:20:06.194Z,99.90
2019-06-01T23:22:35.197Z,99.90
2019-06-01T23:25:24.483Z,99.90
2019-06-01T23:27:53.454Z,99.90
2019-06-01T23:30:22.378Z,99.90
2019-06-01T23:32:51.186Z,99.90
2019-06-01T23:57:12.676Z,99.90
